createdAt,value
2022-10-01T00:00:26.452Z,9.98
2022-10-01T00:02:54.396Z,7.80
2022-10-01T00:05:21.299Z,6.43
2022-10-01T00:07:47.833Z,7.40
2022-10-01T00:10:15.160Z,6.72
2022-10-01T00:12:46.440Z,6.70
2022-10-01T00:15:13.966Z,7.50
2022-10-01T00:17:40.854Z,6.57
2022-10-01T00:20:14.012Z,8.85
2022-10-01T00:22:40.718Z,7.25
2022-10-01T00:25:07.101Z,8.80
2022-10-01T00:27:33.379Z,6.82
2022-10-01T00:29:59.636Z,6.40
2022-10-01T00:32:25.854Z,7.13
2022-10-01T00:34:53.618Z,6.47
2022-10-01T00:37:22.144Z,10.70
2022-10-01T00:39:48.377Z,7.20
2022-10-01T00:42:24.835Z,6.90
2022-10-01T00:44:51.494Z,8.52
2022-10-01T00:47:17.699Z,9.38
2022-10-01T00:49:44.191Z,6.78
2022-10-01T00:52:13.744Z,11.32
2022-10-01T00:54:49.215Z,7.00
2022-10-01T01:04:33.996Z,7.70
2022-10-01T01:07:02.628Z,6.00
2022-10-01T01:09:36.889Z,7.53
2022-10-01T01:12:21.807Z,10.48
2022-10-01T01:15:07.223Z,7.18
2022-10-01T01:17:36.249Z,7.15
2022-10-01T01:20:21.320Z,5.18
2022-10-01T01:22:50.718Z,7.87
2022-10-01T01:25:20.858Z,4.95
2022-10-01T01:28:05.953Z,8.27
2022-10-01T01:30:32.823Z,5.55
2022-10-01T01:33:05.036Z,5.40
2022-10-01T01:35:33.729Z,4.90
2022-10-01T01:38:05.576Z,4.50
2022-10-01T01:40:35.011Z,4.20
2022-10-01T01:43:03.493Z,10.10
2022-10-01T01:45:30.609Z,3.85
2022-10-01T01:47:58.391Z,5.90
2022-10-01T01:50:25.453Z,4.47
2022-10-01T01:52:54.225Z,5.20
2022-10-01T01:55:23.374Z,5.55
2022-10-01T01:57:49.885Z,5.22
2022-10-01T02:00:16.195Z,3.45
2022-10-01T02:02:45.225Z,4.18
2022-10-01T02:05:13.900Z,4.03
2022-10-01T02:07:43.110Z,3.88
2022-10-01T02:10:15.419Z,4.18
2022-10-01T02:13:01.801Z,4.07
2022-10-01T02:15:36.904Z,2.60
2022-10-01T02:18:07.353Z,3.30
2022-10-01T02:20:47.529Z,4.40
2022-10-01T02:23:19.166Z,3.67
2022-10-01T02:25:48.288Z,3.28
2022-10-01T02:28:16.629Z,4.47
2022-10-01T02:30:46.353Z,2.30
2022-10-01T02:33:14.916Z,2.47
2022-10-01T02:35:43.271Z,2.70
2022-10-01T02:38:10.386Z,4.30
2022-10-01T02:40:38.404Z,2.42
2022-10-01T02:43:10.844Z,2.55
2022-10-01T02:45:38.391Z,2.13
2022-10-01T02:48:07.861Z,2.45
2022-10-01T02:50:40.821Z,1.75
2022-10-01T02:53:09.529Z,1.80
2022-10-01T02:55:37.422Z,3.22
2022-10-01T02:58:04.072Z,2.03
2022-10-01T03:00:30.394Z,2.20
2022-10-01T03:02:56.740Z,2.13
2022-10-01T03:05:23.084Z,1.73
2022-10-01T03:07:49.542Z,2.20
2022-10-01T03:10:16.135Z,4.03
2022-10-01T03:12:44.021Z,2.15
2022-10-01T03:15:10.501Z,2.00
2022-10-01T03:17:37.200Z,2.42
2022-10-01T03:20:04.643Z,2.30
2022-10-01T03:22:30.935Z,2.88
2022-10-01T03:24:57.150Z,3.75
2022-10-01T03:27:23.449Z,2.78
2022-10-01T03:29:49.642Z,2.63
2022-10-01T03:32:15.920Z,2.72
2022-10-01T03:34:42.125Z,2.80
2022-10-01T03:37:08.473Z,3.00
2022-10-01T03:39:34.820Z,3.00
2022-10-01T03:42:01.186Z,2.88
2022-10-01T03:44:28.401Z,3.35
2022-10-01T03:46:54.993Z,3.80
2022-10-01T03:49:21.220Z,3.35
2022-10-01T03:51:47.493Z,3.72
2022-10-01T03:54:13.990Z,3.70
2022-10-01T03:56:42.517Z,4.05
2022-10-01T03:59:09.325Z,4.72
2022-10-01T04:01:36.135Z,4.90
2022-10-01T04:04:04.025Z,4.95
2022-10-01T04:06:30.465Z,5.65
2022-10-01T04:08:56.804Z,4.70
2022-10-01T04:11:23.162Z,4.70
2022-10-01T04:13:49.438Z,4.78
2022-10-01T04:16:15.952Z,4.93
2022-10-01T04:18:42.510Z,5.10
2022-10-01T04:21:08.746Z,5.00
2022-10-01T04:23:35.197Z,5.47
2022-10-01T04:26:02.297Z,5.70
2022-10-01T04:28:29.668Z,5.88
2022-10-01T04:31:19.070Z,6.85
2022-10-01T04:33:45.370Z,6.03
2022-10-01T04:36:11.792Z,6.15
2022-10-01T04:38:38.127Z,6.22
2022-10-01T04:41:04.410Z,6.50
2022-10-01T04:43:30.690Z,6.43
2022-10-01T04:45:56.930Z,6.40
2022-10-01T04:48:24.049Z,6.35
2022-10-01T04:50:50.372Z,7.03
2022-10-01T04:53:16.600Z,8.05
2022-10-01T04:55:43.581Z,7.32
2022-10-01T04:58:09.945Z,6.95
2022-10-01T05:00:36.379Z,7.35
2022-10-01T05:03:02.622Z,7.28
2022-10-01T05:05:29.181Z,7.72
2022-10-01T05:07:55.580Z,7.25
2022-10-01T05:10:22.700Z,7.63
2022-10-01T05:12:49.069Z,11.30
2022-10-01T05:15:15.985Z,8.88
2022-10-01T05:17:43.016Z,8.75
2022-10-01T05:20:15.074Z,8.55
2022-10-01T05:22:41.379Z,8.07
2022-10-01T05:25:07.848Z,10.32
2022-10-01T05:27:37.872Z,8.07
2022-10-01T05:30:08.735Z,10.80
2022-10-01T05:32:35.612Z,9.70
2022-10-01T05:35:01.998Z,8.63
2022-10-01T05:37:28.209Z,9.85
2022-10-01T05:39:54.470Z,11.13
2022-10-01T05:42:20.732Z,8.18
2022-10-01T05:44:46.984Z,8.20
2022-10-01T05:47:13.867Z,9.27
2022-10-01T05:49:44.398Z,8.35
2022-10-01T05:52:10.924Z,8.70
2022-10-01T05:54:37.485Z,11.65
2022-10-01T05:57:05.077Z,11.65
2022-10-01T05:59:32.108Z,12.50
2022-10-01T06:01:58.742Z,10.68
2022-10-01T06:04:25.054Z,9.73
2022-10-01T06:06:51.331Z,9.98
2022-10-01T06:09:17.643Z,10.57
2022-10-01T06:11:43.881Z,10.32
2022-10-01T06:14:10.155Z,11.48
2022-10-01T06:16:36.513Z,10.35
2022-10-01T06:19:02.941Z,8.93
2022-10-01T06:21:30.266Z,9.82
2022-10-01T06:23:58.145Z,12.32
2022-10-01T06:26:24.524Z,12.82
2022-10-01T06:28:51.266Z,10.80
2022-10-01T06:31:18.252Z,8.98
2022-10-01T06:33:44.562Z,10.68
2022-10-01T06:36:10.798Z,13.43
2022-10-01T06:38:37.027Z,10.02
2022-10-01T06:41:04.722Z,11.82
2022-10-01T06:43:31.640Z,10.98
2022-10-01T06:46:00.533Z,10.15
2022-10-01T06:48:28.960Z,12.15
2022-10-01T06:50:55.549Z,9.55
2022-10-01T06:53:21.936Z,12.95
2022-10-01T06:55:49.799Z,10.32
2022-10-01T06:58:17.403Z,9.82
2022-10-01T07:00:44.200Z,10.80
2022-10-01T07:03:15.757Z,11.32
2022-10-01T07:05:42.063Z,11.40
2022-10-01T07:08:08.604Z,11.43
2022-10-01T07:10:35.374Z,13.52
2022-10-01T07:13:07.636Z,10.45
2022-10-01T07:15:34.176Z,11.02
2022-10-01T07:18:00.407Z,10.95
2022-10-01T07:20:26.737Z,12.50
2022-10-01T07:22:57.278Z,8.00
2022-10-01T07:25:24.968Z,8.18
2022-10-01T07:27:58.754Z,13.00
2022-10-01T07:30:25.655Z,7.80
2022-10-01T07:32:51.985Z,9.13
2022-10-01T07:35:20.322Z,11.32
2022-10-01T07:37:47.333Z,9.55
2022-10-01T07:40:16.210Z,7.05
2022-10-01T07:42:42.729Z,9.18
2022-10-01T07:45:09.544Z,8.43
2022-10-01T07:47:35.808Z,18.45
2022-10-01T07:50:02.208Z,9.85
2022-10-01T07:52:28.718Z,7.47
2022-10-01T07:54:54.931Z,10.90
2022-10-01T07:57:21.186Z,9.77
2022-10-01T07:59:47.397Z,15.10
2022-10-01T08:02:14.720Z,14.60
2022-10-01T08:04:59.407Z,8.52
2022-10-01T08:07:25.643Z,12.77
2022-10-01T08:09:51.865Z,11.88
2022-10-01T08:12:19.511Z,7.13
2022-10-01T08:14:47.659Z,15.43
2022-10-01T08:17:14.415Z,5.85
2022-10-01T08:19:40.676Z,11.88
2022-10-01T08:22:07.218Z,4.47
2022-10-01T08:24:36.185Z,16.30
2022-10-01T08:33:53.332Z,11.93
2022-10-01T08:36:19.695Z,6.90
2022-10-01T08:38:46.647Z,5.07
2022-10-01T08:41:27.205Z,10.27
2022-10-01T08:43:53.690Z,11.20
2022-10-01T08:46:23.130Z,10.10
2022-10-01T08:48:58.603Z,5.10
2022-10-01T08:53:53.914Z,10.85
2022-10-01T08:56:25.264Z,8.50
2022-10-01T08:58:59.777Z,6.88
2022-10-01T09:01:29.961Z,5.03
2022-10-01T09:03:56.486Z,6.93
2022-10-01T09:06:26.354Z,12.20
2022-10-01T09:09:10.944Z,8.95
2022-10-01T09:11:37.362Z,7.85
2022-10-01T09:14:10.034Z,7.80
2022-10-01T09:16:36.299Z,11.98
2022-10-01T09:19:05.601Z,9.27
2022-10-01T09:21:32.687Z,8.68
2022-10-01T09:24:04.104Z,14.13
2022-10-01T09:26:31.029Z,13.98
2022-10-01T09:29:00.062Z,8.18
2022-10-01T09:31:33.897Z,9.63
2022-10-01T09:34:12.272Z,7.05
2022-10-01T09:37:06.337Z,9.20
2022-10-01T09:39:42.588Z,9.30
2022-10-01T09:42:09.175Z,14.90
2022-10-01T09:44:36.306Z,9.35
2022-10-01T09:47:02.859Z,10.18
2022-10-01T09:49:31.585Z,12.45
2022-10-01T09:52:02.496Z,12.00
2022-10-01T09:54:39.308Z,15.30
2022-10-01T09:57:22.782Z,8.45
2022-10-01T09:59:48.968Z,9.68
2022-10-01T10:02:17.711Z,7.57
2022-10-01T10:04:44.056Z,22.50
2022-10-01T10:07:15.233Z,8.13
2022-10-01T10:09:41.478Z,11.07
2022-10-01T10:12:19.830Z,13.63
2022-10-01T10:14:46.437Z,7.25
2022-10-01T10:17:16.798Z,7.43
2022-10-01T10:19:51.612Z,11.02
2022-10-01T10:22:25.028Z,9.50
2022-10-01T10:24:52.478Z,14.00
2022-10-01T10:27:26.746Z,13.18
2022-10-01T10:30:04.270Z,6.13
2022-10-01T10:32:30.639Z,9.02
2022-10-01T10:35:02.678Z,12.43
2022-10-01T10:37:30.550Z,11.68
2022-10-01T10:39:57.397Z,12.45
2022-10-01T10:42:25.110Z,5.07
2022-10-01T10:44:53.369Z,9.75
2022-10-01T10:47:21.968Z,6.15
2022-10-01T10:49:54.389Z,12.13
2022-10-01T10:52:29.834Z,12.93
2022-10-01T10:57:34.267Z,7.13
2022-10-01T11:00:00.795Z,9.68
2022-10-01T11:02:31.297Z,7.15
2022-10-01T11:04:59.155Z,6.68
2022-10-01T11:07:26.702Z,6.93
2022-10-01T11:09:52.948Z,7.47
2022-10-01T11:12:25.044Z,7.32
2022-10-01T11:14:55.318Z,2.50
2022-10-01T11:17:30.983Z,6.18
2022-10-01T11:20:20.445Z,7.68
2022-10-01T11:22:47.132Z,8.00
2022-10-01T11:25:19.393Z,8.90
2022-10-01T11:27:45.645Z,11.52
2022-10-01T11:30:19.483Z,7.40
2022-10-01T11:33:00.532Z,10.50
2022-10-01T11:35:37.154Z,15.10
2022-10-01T11:38:05.033Z,7.70
2022-10-01T11:40:41.952Z,7.60
2022-10-01T11:43:14.236Z,9.05
2022-10-01T11:45:44.299Z,9.65
2022-10-01T11:48:13.365Z,10.70
2022-10-01T11:50:46.074Z,10.07
2022-10-01T11:53:15.198Z,12.07
2022-10-01T11:56:02.630Z,8.45
2022-10-01T11:58:52.403Z,11.35
2022-10-01T12:01:25.021Z,6.03
2022-10-01T12:03:54.102Z,10.93
2022-10-01T12:06:26.759Z,7.85
2022-10-01T12:09:05.126Z,8.82
2022-10-01T12:11:41.444Z,9.73
2022-10-01T12:14:12.526Z,6.70
2022-10-01T12:16:47.840Z,6.93
2022-10-01T12:19:22.929Z,9.55
2022-10-01T12:21:51.591Z,3.22
2022-10-01T12:24:20.346Z,15.13
2022-10-01T12:26:56.916Z,7.13
2022-10-01T12:29:41.931Z,9.70
2022-10-01T12:32:16.672Z,12.07
2022-10-01T12:34:42.916Z,8.85
2022-10-01T12:37:17.095Z,10.70
2022-10-01T12:40:10.243Z,8.50
2022-10-01T12:42:43.846Z,10.30
2022-10-01T12:45:29.019Z,11.25
2022-10-01T12:48:16.312Z,4.40
2022-10-01T12:50:50.297Z,6.20
2022-10-01T12:53:28.815Z,6.45
2022-10-01T12:56:15.722Z,9.88
2022-10-01T12:58:43.451Z,7.65
2022-10-01T13:01:36.130Z,6.57
2022-10-01T13:04:18.044Z,9.57
2022-10-01T13:06:55.996Z,12.18
2022-10-01T13:09:34.549Z,9.80
2022-10-01T13:12:28.666Z,9.32
2022-10-01T13:14:55.907Z,7.70
2022-10-01T13:17:24.886Z,11.88
2022-10-01T13:20:15.529Z,9.85
2022-10-01T13:22:52.458Z,9.18
2022-10-01T13:25:22.644Z,8.98
2022-10-01T13:28:02.624Z,10.00
2022-10-01T13:30:34.312Z,13.05
2022-10-01T13:33:00.998Z,7.00
2022-10-01T13:35:35.182Z,10.30
2022-10-01T13:38:13.464Z,10.30
2022-10-01T13:40:39.702Z,12.45
2022-10-01T13:43:16.681Z,13.00
2022-10-01T13:45:44.488Z,4.60
2022-10-01T13:48:10.699Z,8.57
2022-10-01T13:50:39.872Z,10.07
2022-10-01T13:53:17.407Z,9.10
2022-10-01T13:55:44.875Z,7.15
2022-10-01T13:58:23.265Z,12.57
2022-10-01T14:00:54.526Z,6.60
2022-10-01T14:03:33.539Z,10.85
2022-10-01T14:06:01.432Z,8.73
2022-10-01T14:08:37.869Z,10.43
2022-10-01T14:11:33.992Z,7.97
2022-10-01T14:14:41.956Z,7.45
2022-10-01T14:17:10.265Z,6.30
2022-10-01T14:19:37.026Z,12.90
2022-10-01T14:22:23.473Z,6.30
2022-10-01T14:25:03.905Z,6.38
2022-10-01T14:27:33.356Z,6.72
2022-10-01T14:30:07.099Z,13.35
2022-10-01T14:32:33.336Z,14.82
2022-10-01T14:34:59.555Z,11.05
2022-10-01T14:37:26.298Z,11.57
2022-10-01T14:40:02.537Z,8.60
2022-10-01T14:42:28.772Z,7.22
2022-10-01T14:44:55.022Z,7.45
2022-10-01T14:47:22.932Z,6.60
2022-10-01T14:49:49.843Z,7.30
2022-10-01T14:52:23.525Z,7.00
2022-10-01T14:54:49.840Z,8.27
2022-10-01T14:57:18.197Z,6.75
2022-10-01T14:59:46.890Z,6.97
2022-10-01T15:02:17.858Z,10.23
2022-10-01T15:04:47.726Z,10.30
2022-10-01T15:07:16.010Z,13.13
2022-10-01T15:09:43.059Z,9.25
2022-10-01T15:12:09.799Z,8.15
2022-10-01T15:14:36.486Z,7.65
2022-10-01T15:17:03.886Z,6.40
2022-10-01T15:19:30.713Z,9.23
2022-10-01T15:21:59.061Z,9.95
2022-10-01T15:24:42.323Z,8.02
2022-10-01T15:27:09.883Z,7.45
2022-10-01T15:29:36.825Z,12.13
2022-10-01T15:32:03.995Z,9.82
2022-10-01T15:34:30.478Z,7.30
2022-10-01T15:36:56.838Z,5.47
2022-10-01T15:39:33.375Z,7.38
2022-10-01T15:42:01.587Z,9.63
2022-10-01T15:44:39.209Z,12.43
2022-10-01T15:47:23.485Z,10.65
2022-10-01T15:50:02.230Z,7.35
2022-10-01T15:52:48.092Z,9.40
2022-10-01T15:57:44.807Z,8.23
2022-10-01T16:00:22.076Z,3.60
2022-10-01T16:02:48.626Z,11.52
2022-10-01T16:05:16.521Z,8.52
2022-10-01T16:07:46.310Z,7.40
2022-10-01T16:10:33.523Z,4.50
2022-10-01T16:13:00.331Z,7.53
2022-10-01T16:15:28.065Z,8.23
2022-10-01T16:17:59.073Z,8.63
2022-10-01T16:20:46.658Z,7.47
2022-10-01T16:23:34.711Z,6.28
2022-10-01T16:26:01.594Z,8.55
2022-10-01T16:28:27.859Z,7.03
2022-10-01T16:30:55.122Z,6.15
2022-10-01T16:33:21.339Z,6.47
2022-10-01T16:35:47.734Z,7.03
2022-10-01T16:38:14.262Z,3.75
2022-10-01T16:40:44.516Z,9.52
2022-10-01T16:43:15.935Z,5.75
2022-10-01T16:45:42.787Z,3.55
2022-10-01T16:48:27.974Z,11.48
2022-10-01T16:50:56.272Z,5.25
2022-10-01T16:53:24.697Z,11.85
2022-10-01T16:55:52.644Z,7.85
2022-10-01T16:58:20.063Z,6.03
2022-10-01T17:00:46.350Z,10.68
2022-10-01T17:03:14.848Z,7.22
2022-10-01T17:05:41.121Z,8.52
2022-10-01T17:08:13.515Z,4.68
2022-10-01T17:11:09.510Z,5.55
2022-10-01T17:13:38.176Z,6.18
2022-10-01T17:16:07.736Z,12.98
2022-10-01T17:18:34.033Z,10.60
2022-10-01T17:21:02.155Z,4.82
2022-10-01T17:23:28.423Z,4.25
2022-10-01T17:25:54.629Z,9.43
2022-10-01T17:28:21.053Z,11.15
2022-10-01T17:30:48.058Z,9.88
2022-10-01T17:33:15.574Z,8.68
2022-10-01T17:35:43.378Z,6.43
2022-10-01T17:38:10.332Z,4.07
2022-10-01T17:40:39.022Z,6.25
2022-10-01T17:43:05.289Z,7.55
2022-10-01T17:45:31.593Z,10.32
2022-10-01T17:47:57.885Z,8.35
2022-10-01T17:50:24.303Z,10.13
2022-10-01T17:52:50.528Z,8.32
2022-10-01T17:55:17.319Z,9.55
2022-10-01T17:57:43.565Z,9.00
2022-10-01T18:00:10.073Z,9.52
2022-10-01T18:02:42.287Z,6.80
2022-10-01T18:05:09.622Z,7.25
2022-10-01T18:07:37.025Z,11.10
2022-10-01T18:10:04.619Z,8.43
2022-10-01T18:12:30.901Z,9.50
2022-10-01T18:14:57.119Z,7.95
2022-10-01T18:17:23.877Z,14.98
2022-10-01T18:19:54.095Z,10.32
2022-10-01T18:22:20.752Z,11.18
2022-10-01T18:24:47.178Z,15.15
2022-10-01T18:27:13.726Z,14.15
2022-10-01T18:29:40.060Z,10.40
2022-10-01T18:32:33.189Z,12.88
2022-10-01T18:35:00.529Z,9.52
2022-10-01T18:37:45.206Z,12.73
2022-10-01T18:40:23.261Z,9.40
2022-10-01T18:42:59.185Z,14.73
2022-10-01T18:45:33.974Z,13.80
2022-10-01T18:48:13.181Z,11.73
2022-10-01T18:50:57.673Z,11.23
2022-10-01T18:53:36.189Z,12.02
2022-10-01T18:56:25.797Z,12.80
2022-10-01T18:59:10.208Z,8.23
2022-10-01T19:01:48.152Z,10.95
2022-10-01T19:04:17.780Z,7.22
2022-10-01T19:07:02.418Z,11.23
2022-10-01T19:09:39.965Z,9.95
2022-10-01T19:12:24.836Z,9.30
2022-10-01T19:14:51.341Z,6.85
2022-10-01T19:17:17.536Z,10.95
2022-10-01T19:20:01.999Z,9.93
2022-10-01T19:22:52.726Z,16.95
2022-10-01T19:25:18.938Z,9.80
2022-10-01T19:28:14.981Z,9.88
2022-10-01T19:30:48.954Z,11.40
2022-10-01T19:33:17.719Z,10.90
2022-10-01T19:35:46.452Z,16.13
2022-10-01T19:38:12.644Z,14.27
2022-10-01T19:40:38.839Z,10.38
2022-10-01T19:43:07.787Z,8.15
2022-10-01T19:45:52.953Z,8.77
2022-10-01T19:48:21.445Z,10.60
2022-10-01T19:50:52.344Z,10.82
2022-10-01T19:53:26.035Z,12.15
2022-10-01T19:55:52.833Z,7.57
2022-10-01T19:58:20.065Z,11.65
2022-10-01T20:00:52.770Z,10.80
2022-10-01T20:03:22.743Z,8.85
2022-10-01T20:05:55.250Z,7.60
2022-10-01T20:08:24.933Z,10.10
2022-10-01T20:11:01.114Z,9.75
2022-10-01T20:13:39.253Z,9.00
2022-10-01T20:16:40.573Z,11.02
2022-10-01T20:19:26.577Z,7.93
2022-10-01T20:24:37.668Z,5.97
2022-10-01T20:27:11.443Z,6.47
2022-10-01T20:29:45.831Z,6.65
2022-10-01T20:32:18.469Z,10.00
2022-10-01T20:34:44.725Z,7.68
2022-10-01T20:37:16.906Z,10.60
2022-10-01T20:39:48.691Z,6.55
2022-10-01T20:42:18.770Z,8.13
2022-10-01T20:44:45.249Z,9.50
2022-10-01T20:47:16.307Z,13.75
2022-10-01T20:49:46.307Z,16.40
2022-10-01T20:52:27.827Z,8.68
2022-10-01T20:55:01.160Z,9.75
2022-10-01T20:57:42.352Z,8.63
2022-10-01T21:00:19.453Z,13.43
2022-10-01T21:03:04.693Z,10.20
2022-10-01T21:06:00.782Z,12.77
2022-10-01T21:08:27.378Z,10.80
2022-10-01T21:10:56.195Z,12.02
2022-10-01T21:13:33.887Z,9.40
2022-10-01T21:16:18.889Z,10.18
2022-10-01T21:18:59.680Z,11.48
2022-10-01T21:21:25.962Z,10.15
2022-10-01T21:24:02.903Z,13.70
2022-10-01T21:26:39.257Z,14.32
2022-10-01T21:29:05.474Z,10.13
2022-10-01T21:31:41.546Z,7.43
2022-10-01T21:34:12.384Z,12.07
2022-10-01T21:36:52.050Z,10.05
2022-10-01T21:39:24.885Z,6.32
2022-10-01T21:41:57.214Z,16.98
2022-10-01T21:44:32.595Z,11.10
2022-10-01T21:47:07.932Z,10.43
2022-10-01T21:49:37.139Z,12.43
2022-10-01T21:52:10.753Z,16.15
2022-10-01T21:54:46.365Z,11.30
2022-10-01T21:57:31.515Z,9.23
2022-10-01T22:00:32.553Z,19.95
2022-10-01T22:03:04.732Z,12.80
2022-10-01T22:05:37.319Z,16.67
2022-10-01T22:08:15.552Z,17.67
2022-10-01T22:11:02.100Z,11.90
2022-10-01T22:13:29.582Z,14.98
2022-10-01T22:16:14.189Z,16.20
2022-10-01T22:18:43.289Z,14.63
2022-10-01T22:21:13.244Z,26.73
2022-10-01T22:23:46.142Z,22.40
2022-10-01T22:26:20.793Z,20.63
2022-10-01T22:28:49.823Z,20.73
2022-10-01T22:31:18.088Z,12.27
2022-10-01T22:33:57.180Z,22.33
2022-10-01T22:36:36.339Z,20.60
2022-10-01T22:39:07.506Z,20.80
2022-10-01T22:42:03.159Z,14.57
2022-10-01T22:44:29.517Z,14.00
2022-10-01T22:47:14.040Z,18.02
2022-10-01T22:49:46.339Z,14.10
2022-10-01T22:52:31.461Z,32.00
2022-10-01T22:55:00.682Z,27.67
2022-10-01T22:57:33.015Z,17.88
2022-10-01T23:00:13.130Z,10.05
2022-10-01T23:02:48.460Z,16.67
2022-10-01T23:05:26.870Z,15.80
2022-10-01T23:08:03.023Z,14.48
2022-10-01T23:10:36.222Z,15.77
2022-10-01T23:13:03.926Z,12.57
2022-10-01T23:15:45.979Z,9.93
2022-10-01T23:18:18.235Z,8.82
2022-10-01T23:21:08.211Z,12.15
2022-10-01T23:23:34.508Z,15.43
2022-10-01T23:26:21.646Z,8.77
2022-10-01T23:29:06.557Z,10.20
2022-10-01T23:31:36.133Z,17.80
2022-10-01T23:34:14.776Z,10.98
2022-10-01T23:36:49.047Z,13.50
2022-10-01T23:39:24.209Z,10.05
2022-10-01T23:41:50.441Z,11.50
2022-10-01T23:44:22.789Z,7.35
2022-10-01T23:46:51.691Z,10.15
2022-10-01T23:49:21.431Z,14.20
2022-10-01T23:52:05.490Z,9.80
2022-10-01T23:54:43.901Z,8.20
2022-10-01T23:57:13.982Z,12.50
2022-10-01T23:59:46.174Z,12.32
